Time;durP1;ratioP1;P1;durP2;ratioP2;P2;SDS_P1;SDS_P2;PMS_P1;PMS_P2;Temp;Humidity;BMP_temperature;BMP_pressure;BME280_temperature;BME280_humidity;BME280_pressure;Samples;Min_cycle;Max_cycle;Signal;HPM_P1;HPM_P2
2022/05/23 00:02:12;;;;;;;8.35;3.78;;;18.90;99.90;;;;;;5114574;28;20173;-51
2022/05/23 00:04:38;;;;;;;6.85;4.38;;;19.00;99.90;;;;;;5114680;28;20273;-49
2022/05/23 00:07:11;;;;;;;6.57;3.60;;;19.00;99.90;;;;;;5096471;28;20205;-50
2022/05/23 00:09:37;;;;;;;4.68;2.80;;;18.90;99.90;;;;;;5114922;28;20175;-51
2022/05/23 00:12:03;;;;;;;6.55;3.20;;;18.90;99.90;;;;;;5115121;28;20177;-51
2022/05/23 00:14:30;;;;;;;6.05;3.65;;;18.80;99.90;;;;;;5114751;28;20632;-51
2022/05/23 00:16:55;;;;;;;10.35;3.13;;;18.80;99.90;;;;;;5114669;28;20686;-49
2022/05/23 00:19:22;;;;;;;8.65;4.68;;;18.70;99.90;;;;;;5114843;28;20228;-51
2022/05/23 00:21:49;;;;;;;5.88;2.92;;;18.70;99.90;;;;;;5114700;28;20157;-50
2022/05/23 00:24:15;;;;;;;23.92;9.10;;;18.70;99.90;;;;;;5114632;28;20168;-51
2022/05/23 00:26:46;;;;;;;9.60;4.05;;;18.60;99.90;;;;;;5114393;28;20239;-51
2022/05/23 00:29:12;;;;;;;10.25;3.80;;;18.70;99.90;;;;;;5114605;28;20168;-50
2022/05/23 00:35:17;;;;;;;11.63;5.40;;;18.60;99.90;;;;;;5113747;28;20160;-51
2022/05/23 00:37:07;;;;;;;15.00;6.68;;;18.70;99.90;;;;;;5114281;28;20164;-50
2022/05/23 00:39:32;;;;;;;14.02;6.47;;;18.70;99.90;;;;;;5114404;28;20169;-49
2022/05/23 00:44:42;;;;;;;35.72;14.90;;;18.70;99.90;;;;;;5114354;28;20172;-50
2022/05/23 00:47:18;;;;;;;16.77;7.90;;;18.70;99.90;;;;;;5114123;28;20208;-51
2022/05/23 00:49:45;;;;;;;14.80;7.03;;;18.70;99.90;;;;;;5114140;28;20541;-50
2022/05/23 00:52:26;;;;;;;8.50;4.72;;;18.70;99.90;;;;;;5096041;28;20168;-50
2022/05/23 00:54:56;;;;;;;7.97;3.38;;;18.80;99.90;;;;;;5114366;28;20557;-50
2022/05/23 00:57:35;;;;;;;6.13;3.33;;;18.70;99.90;;;;;;5114360;28;20172;-50
2022/05/23 01:00:03;;;;;;;11.30;5.50;;;18.70;99.90;;;;;;5114188;28;20177;-51
2022/05/23 01:02:30;;;;;;;8.95;5.10;;;18.70;99.90;;;;;;5113776;28;20176;-49
2022/05/23 01:04:56;;;;;;;7.30;3.92;;;18.70;99.90;;;;;;5113750;28;20293;-49
2022/05/23 01:07:21;;;;;;;6.07;3.20;;;18.70;99.90;;;;;;5114453;28;20240;-51
2022/05/23 01:09:49;;;;;;;7.57;4.07;;;18.70;99.90;;;;;;5113709;28;20215;-50
2022/05/23 01:12:15;;;;;;;10.48;5.28;;;18.70;99.90;;;;;;5113825;28;20815;-51
2022/05/23 01:14:50;;;;;;;10.15;5.57;;;18.70;99.90;;;;;;5113669;28;20294;-50
2022/05/23 01:17:17;;;;;;;14.45;8.10;;;18.70;99.90;;;;;;5113601;28;20174;-50
2022/05/23 01:19:43;;;;;;;19.10;11.23;;;18.70;99.90;;;;;;5113477;28;20247;-50
2022/05/23 01:22:34;;;;;;;42.60;23.65;;;18.70;99.90;;;;;;5113509;28;20199;-51
2022/05/23 01:25:26;;;;;;;15.15;7.32;;;18.70;99.90;;;;;;5112401;28;20651;-49
2022/05/23 01:27:53;;;;;;;8.30;4.28;;;18.70;99.90;;;;;;5100151;28;20652;-50
2022/05/23 01:30:19;;;;;;;3.55;2.60;;;18.70;99.90;;;;;;5113624;28;20186;-50
2022/05/23 01:32:45;;;;;;;8.95;3.03;;;18.70;99.90;;;;;;5113370;28;20987;-51
2022/05/23 01:35:12;;;;;;;5.28;3.17;;;18.70;99.90;;;;;;5095011;28;20268;-50
2022/05/23 01:37:37;;;;;;;4.47;2.50;;;18.60;99.90;;;;;;5113271;28;20192;-50
2022/05/23 01:40:06;;;;;;;4.30;2.60;;;18.60;99.90;;;;;;5113266;28;20192;-50
2022/05/23 01:42:32;;;;;;;2.85;2.55;;;18.60;99.90;;;;;;5112689;28;20237;-51
2022/05/23 01:44:57;;;;;;;4.57;2.88;;;18.70;99.90;;;;;;5112957;28;20165;-50
2022/05/23 01:47:23;;;;;;;19.63;10.55;;;18.70;99.90;;;;;;5113294;28;20622;-50
2022/05/23 01:49:49;;;;;;;19.58;10.68;;;18.70;99.90;;;;;;5113246;28;20172;-51
2022/05/23 01:52:14;;;;;;;19.17;12.25;;;18.50;99.90;;;;;;5112952;28;20168;-51
2022/05/23 01:54:40;;;;;;;5.80;4.47;;;18.50;99.90;;;;;;5112956;28;20300;-51
2022/05/23 01:57:09;;;;;;;3.80;2.70;;;18.60;99.90;;;;;;5112965;28;20172;-50
2022/05/23 02:02:19;;;;;;;4.45;2.75;;;18.50;99.90;;;;;;5112799;28;20226;-51
2022/05/23 02:04:45;;;;;;;4.72;2.50;;;18.50;99.90;;;;;;5112714;28;20591;-51
2022/05/23 02:07:11;;;;;;;8.30;4.40;;;18.50;99.90;;;;;;5112931;28;20208;-51
2022/05/23 02:09:38;;;;;;;6.60;3.70;;;18.60;99.90;;;;;;5112533;28;20165;-51
2022/05/23 02:12:05;;;;;;;9.60;4.00;;;18.60;99.90;;;;;;5112681;28;20647;-49
2022/05/23 02:14:31;;;;;;;9.75;4.57;;;18.50;99.90;;;;;;5112694;28;20172;-50
2022/05/23 02:16:56;;;;;;;6.53;4.50;;;18.60;99.90;;;;;;5112341;28;20191;-50
2022/05/23 02:19:22;;;;;;;6.35;5.15;;;18.50;99.90;;;;;;5113211;28;20169;-50
2022/05/23 02:21:47;;;;;;;7.78;3.45;;;18.50;99.90;;;;;;5112549;28;20167;-50
2022/05/23 02:24:13;;;;;;;5.75;2.75;;;18.40;99.90;;;;;;5112485;28;20242;-50
2022/05/23 02:26:38;;;;;;;3.67;2.80;;;18.40;99.90;;;;;;5112434;28;20283;-50
2022/05/23 02:29:07;;;;;;;6.05;3.75;;;18.40;99.90;;;;;;5112728;28;20552;-49
2022/05/23 02:31:32;;;;;;;9.02;4.68;;;18.30;99.90;;;;;;5112629;28;20176;-49
2022/05/23 02:33:58;;;;;;;7.85;3.50;;;18.40;99.90;;;;;;5112639;28;20214;-49
2022/05/23 02:36:23;;;;;;;6.35;3.60;;;18.30;99.90;;;;;;5112717;28;20643;-50
2022/05/23 02:38:49;;;;;;;4.28;2.75;;;18.20;99.90;;;;;;5112389;28;20230;-51
2022/05/23 02:41:14;;;;;;;6.43;3.05;;;18.10;99.90;;;;;;5112306;28;20168;-51
2022/05/23 02:43:40;;;;;;;3.88;2.90;;;18.00;99.90;;;;;;5112367;28;20180;-49
2022/05/23 02:46:05;;;;;;;8.05;3.70;;;18.00;99.90;;;;;;5112092;28;20279;-48
2022/05/23 02:48:31;;;;;;;4.00;2.80;;;17.90;99.90;;;;;;5112152;28;20184;-50
2022/05/23 02:50:56;;;;;;;5.28;3.08;;;17.90;99.90;;;;;;5112168;28;20168;-49
2022/05/23 02:53:22;;;;;;;4.95;2.75;;;18.00;99.90;;;;;;5112746;28;20256;-50
2022/05/23 02:55:47;;;;;;;5.65;2.83;;;17.90;99.90;;;;;;5115362;28;20160;-50
2022/05/23 02:58:13;;;;;;;5.45;2.60;;;17.90;99.90;;;;;;5116088;28;20257;-47
2022/05/23 03:00:39;;;;;;;5.07;2.80;;;17.90;99.90;;;;;;5116240;28;20169;-49
2022/05/23 03:03:06;;;;;;;5.55;2.63;;;17.90;99.90;;;;;;5116223;28;20167;-49
2022/05/23 03:05:39;;;;;;;6.28;2.80;;;17.90;99.90;;;;;;5115926;28;20220;-49
2022/05/23 03:08:05;;;;;;;4.65;2.47;;;17.90;99.90;;;;;;5116423;28;20203;-49
2022/05/23 03:10:31;;;;;;;6.13;3.00;;;17.80;99.90;;;;;;5116140;28;20617;-49
2022/05/23 03:12:56;;;;;;;4.03;3.20;;;17.80;99.90;;;;;;5115984;28;20200;-48
2022/05/23 03:15:22;;;;;;;4.05;2.80;;;17.80;99.90;;;;;;5116261;28;20161;-49
2022/05/23 03:17:48;;;;;;;3.88;2.38;;;17.70;99.90;;;;;;5116162;28;20255;-49
2022/05/23 03:20:14;;;;;;;7.13;2.80;;;17.70;99.90;;;;;;5115899;28;20165;-49
2022/05/23 03:28:09;;;;;;;5.78;2.83;;;17.70;99.90;;;;;;5115737;28;20659;-50
2022/05/23 03:30:35;;;;;;;3.50;2.70;;;17.60;99.90;;;;;;5115698;28;20165;-49
2022/05/23 03:33:01;;;;;;;3.35;2.50;;;17.60;99.90;;;;;;5097407;28;20172;-49
2022/05/23 03:35:29;;;;;;;4.80;2.35;;;17.60;99.90;;;;;;5097320;28;20617;-49
2022/05/23 03:37:55;;;;;;;3.72;2.40;;;17.70;99.90;;;;;;5116152;28;20172;-49
2022/05/23 03:40:21;;;;;;;5.57;3.20;;;17.60;99.90;;;;;;5115857;28;20167;-48
2022/05/23 03:42:47;;;;;;;3.25;2.60;;;17.60;99.90;;;;;;5115476;28;20244;-49
2022/05/23 03:45:13;;;;;;;6.05;3.50;;;17.60;99.90;;;;;;5115397;28;20623;-49
2022/05/23 03:47:38;;;;;;;4.43;3.10;;;17.70;99.90;;;;;;5115347;28;20196;-49
2022/05/23 03:50:05;;;;;;;12.60;8.30;;;17.70;99.90;;;;;;5115376;28;20647;-48
2022/05/23 03:52:30;;;;;;;3.63;3.00;;;17.70;99.90;;;;;;5115510;28;20534;-51
2022/05/23 03:54:56;;;;;;;6.47;3.42;;;17.60;99.90;;;;;;5115191;28;20165;-51
2022/05/23 03:57:23;;;;;;;5.10;2.80;;;17.70;99.90;;;;;;5115499;28;20157;-51
2022/05/23 03:59:49;;;;;;;7.10;3.75;;;17.60;99.90;;;;;;5115300;28;20214;-50
2022/05/23 04:02:14;;;;;;;6.00;3.28;;;17.60;99.90;;;;;;5115095;28;20161;-50
2022/05/23 04:04:40;;;;;;;4.90;3.38;;;17.60;99.90;;;;;;5114836;28;20715;-51
2022/05/23 04:07:06;;;;;;;5.18;2.92;;;17.70;99.90;;;;;;5113895;28;20540;-51
2022/05/23 04:09:32;;;;;;;6.50;3.35;;;17.70;99.90;;;;;;5114980;28;20153;-50
2022/05/23 04:11:59;;;;;;;11.35;4.63;;;17.70;99.90;;;;;;5114835;28;20180;-50
2022/05/23 04:14:25;;;;;;;7.97;4.38;;;17.70;99.90;;;;;;5115292;28;20259;-50
2022/05/23 04:16:52;;;;;;;9.88;6.63;;;17.80;99.90;;;;;;5115355;28;20179;-51
2022/05/23 04:19:18;;;;;;;8.90;4.10;;;17.80;99.90;;;;;;5114714;28;20644;-51
2022/05/23 04:21:45;;;;;;;6.15;4.20;;;17.70;99.90;;;;;;5114618;28;20173;-51
2022/05/23 04:24:12;;;;;;;5.93;4.15;;;17.80;99.90;;;;;;5114298;28;20631;-51
2022/05/23 04:26:38;;;;;;;4.97;3.10;;;17.90;99.90;;;;;;5114419;28;20252;-50
2022/05/23 04:29:06;;;;;;;6.93;3.25;;;17.90;99.90;;;;;;5114541;28;20195;-51
2022/05/23 04:31:32;;;;;;;5.70;2.88;;;17.90;99.90;;;;;;5114476;28;20164;-51
2022/05/23 04:36:43;;;;;;;12.05;5.63;;;17.90;99.90;;;;;;5114753;28;20183;-50
2022/05/23 04:39:09;;;;;;;8.18;4.28;;;17.90;99.90;;;;;;5114443;28;20528;-50
2022/05/23 04:41:35;;;;;;;18.00;7.95;;;17.90;99.90;;;;;;5114496;28;20168;-49
2022/05/23 04:44:01;;;;;;;6.05;3.17;;;17.90;99.90;;;;;;5114244;28;20172;-50
2022/05/23 04:46:27;;;;;;;6.30;3.03;;;17.90;99.90;;;;;;5114100;28;20200;-51
2022/05/23 04:51:39;;;;;;;9.15;4.50;;;17.90;99.90;;;;;;5114408;28;20175;-50
2022/05/23 04:54:05;;;;;;;7.40;4.00;;;17.90;99.90;;;;;;5113892;28;20662;-49
2022/05/23 04:56:31;;;;;;;12.63;6.78;;;17.90;99.90;;;;;;5095699;28;20176;-50
2022/05/23 04:58:57;;;;;;;15.65;8.50;;;17.90;99.90;;;;;;5113902;28;20179;-49
2022/05/23 05:01:23;;;;;;;11.05;5.85;;;18.00;99.90;;;;;;5114399;28;20169;-51
2022/05/23 05:03:52;;;;;;;8.82;5.38;;;18.00;99.90;;;;;;5113711;28;20283;-50
2022/05/23 05:06:22;;;;;;;8.93;3.83;;;18.00;99.90;;;;;;5113930;28;20212;-50
2022/05/23 05:08:48;;;;;;;9.20;4.32;;;18.10;99.90;;;;;;5114051;28;20193;-50
2022/05/23 05:11:14;;;;;;;10.20;7.30;;;18.20;99.90;;;;;;5113686;28;20168;-49
2022/05/23 05:13:40;;;;;;;6.55;4.28;;;18.20;99.90;;;;;;5113596;28;20175;-49
2022/05/23 05:16:06;;;;;;;5.25;4.22;;;18.30;99.90;;;;;;5113440;28;20196;-50
2022/05/23 05:18:33;;;;;;;5.93;3.42;;;18.30;99.90;;;;;;5113352;28;20165;-50
2022/05/23 05:21:10;;;;;;;7.93;3.10;;;18.40;99.90;;;;;;5113653;28;20173;-50
2022/05/23 05:23:35;;;;;;;5.15;3.25;;;18.40;99.90;;;;;;5113708;28;20168;-50
2022/05/23 05:26:05;;;;;;;8.02;2.53;;;18.40;99.90;;;;;;5113564;28;20553;-49
2022/05/23 05:28:32;;;;;;;4.05;2.50;;;18.50;99.90;;;;;;5113633;28;20505;-50
2022/05/23 05:31:14;;;;;;;3.30;2.40;;;18.40;99.90;;;;;;5113578;28;20578;-50
2022/05/23 05:33:45;;;;;;;5.53;2.90;;;18.50;99.90;;;;;;5113557;28;20169;-50
2022/05/23 05:36:16;;;;;;;6.80;3.20;;;18.50;99.90;;;;;;5113275;28;20613;-50
2022/05/23 05:38:46;;;;;;;3.20;2.88;;;18.50;99.90;;;;;;5113496;28;20204;-50
2022/05/23 05:41:17;;;;;;;8.32;2.90;;;18.70;99.90;;;;;;5113474;28;20169;-49
2022/05/23 05:43:48;;;;;;;4.78;2.58;;;18.80;99.90;;;;;;5113039;28;20195;-50
2022/05/23 05:46:18;;;;;;;5.75;2.92;;;18.80;99.90;;;;;;5112946;28;20268;-49
2022/05/23 05:48:47;;;;;;;3.97;2.55;;;18.80;99.90;;;;;;5112861;28;20160;-49
2022/05/23 05:51:15;;;;;;;5.75;2.80;;;18.90;99.90;;;;;;5113149;28;20176;-49
2022/05/23 05:53:41;;;;;;;4.35;2.38;;;18.90;99.90;;;;;;5112931;28;20171;-48
2022/05/23 05:56:09;;;;;;;8.27;2.95;;;18.80;99.90;;;;;;5112916;28;20165;-50
2022/05/23 05:58:35;;;;;;;4.03;2.55;;;18.90;99.90;;;;;;5113104;28;20222;-49
2022/05/23 06:01:01;;;;;;;3.92;2.95;;;18.90;99.90;;;;;;5112794;28;20164;-47
2022/05/23 06:03:26;;;;;;;4.88;2.72;;;19.00;99.90;;;;;;5112674;28;20168;-48
2022/05/23 06:11:23;;;;;;;6.22;2.58;;;19.10;99.90;;;;;;5112980;28;20160;-49
2022/05/23 06:13:55;;;;;;;8.00;3.05;;;19.10;99.90;;;;;;5112567;28;20171;-49
2022/05/23 06:16:21;;;;;;;6.43;2.60;;;19.20;99.90;;;;;;5113141;28;20226;-49
2022/05/23 06:18:47;;;;;;;6.82;2.95;;;19.40;99.90;;;;;;5112595;28;20161;-48
2022/05/23 06:21:13;;;;;;;5.60;2.38;;;19.50;99.90;;;;;;5112860;28;20180;-47
2022/05/23 06:23:40;;;;;;;5.88;2.90;;;19.40;99.90;;;;;;5112528;28;20572;-48
2022/05/23 06:26:06;;;;;;;4.10;2.63;;;19.50;99.90;;;;;;5112719;28;20207;-49
2022/05/23 06:28:31;;;;;;;5.28;2.28;;;19.50;99.90;;;;;;5112347;28;20531;-49
2022/05/23 06:30:59;;;;;;;10.32;3.17;;;19.40;99.90;;;;;;5112016;28;20164;-47
2022/05/23 06:33:25;;;;;;;5.82;2.60;;;19.30;99.90;;;;;;5113024;28;20539;-49
2022/05/23 06:35:51;;;;;;;4.68;2.40;;;19.40;99.90;;;;;;5112783;28;20164;-49
2022/05/23 06:38:17;;;;;;;5.28;2.38;;;19.40;99.90;;;;;;5112736;28;20229;-48
2022/05/23 06:40:43;;;;;;;5.90;2.60;;;19.50;99.90;;;;;;5112431;28;20635;-47
2022/05/23 06:43:09;;;;;;;5.88;2.65;;;19.40;99.90;;;;;;5112404;28;20175;-48
2022/05/23 06:45:35;;;;;;;4.95;2.63;;;19.40;99.90;;;;;;5112255;28;20248;-49
2022/05/23 06:48:01;;;;;;;3.80;2.42;;;19.30;99.90;;;;;;5112322;28;20183;-48
2022/05/23 06:50:27;;;;;;;5.07;2.60;;;19.30;99.90;;;;;;5112302;28;20232;-48
2022/05/23 06:52:52;;;;;;;4.20;2.67;;;19.40;99.90;;;;;;5112865;28;20164;-48
2022/05/23 06:55:18;;;;;;;4.50;2.38;;;19.40;99.90;;;;;;5112141;28;20697;-48
2022/05/23 06:57:43;;;;;;;10.50;2.85;;;19.40;99.90;;;;;;5112163;28;20252;-49
2022/05/23 07:00:10;;;;;;;4.85;2.75;;;19.50;99.90;;;;;;5112312;28;20248;-49
2022/05/23 07:02:37;;;;;;;6.30;2.90;;;19.70;99.90;;;;;;5112054;28;20164;-50
2022/05/23 07:13:15;;;;;;;3.80;2.45;;;19.80;99.90;;;;;;5112103;28;20172;-49
2022/05/23 07:15:46;;;;;;;7.15;2.75;;;19.90;99.90;;;;;;5112174;28;20164;-48
2022/05/23 07:18:14;;;;;;;8.93;2.95;;;19.90;99.90;;;;;;5112313;28;20183;-49
2022/05/23 07:20:40;;;;;;;15.07;3.35;;;20.00;99.90;;;;;;5112188;28;20199;-49
2022/05/23 07:23:06;;;;;;;8.32;3.45;;;20.10;99.90;;;;;;5112038;28;20173;-48
2022/05/23 07:25:32;;;;;;;6.40;2.63;;;20.30;99.90;;;;;;5111941;28;20244;-49
2022/05/23 07:27:58;;;;;;;3.72;2.50;;;20.30;99.90;;;;;;5112119;28;20234;-49
2022/05/23 07:30:23;;;;;;;6.53;2.95;;;20.50;99.90;;;;;;5112225;28;20165;-49
2022/05/23 07:32:49;;;;;;;4.25;2.53;;;20.60;99.90;;;;;;5112127;28;20172;-50
2022/05/23 07:35:18;;;;;;;4.00;2.70;;;20.60;99.90;;;;;;5112212;28;20169;-50
2022/05/23 07:37:44;;;;;;;5.22;3.05;;;20.50;99.90;;;;;;5112070;28;20516;-51
2022/05/23 07:40:11;;;;;;;7.55;3.35;;;20.50;99.90;;;;;;5111801;28;20165;-50
2022/05/23 07:42:37;;;;;;;5.85;2.50;;;20.70;99.90;;;;;;5114311;28;20215;-50
2022/05/23 07:45:04;;;;;;;4.70;2.22;;;20.60;99.90;;;;;;5097189;28;20655;-50
2022/05/23 07:47:29;;;;;;;10.40;3.22;;;20.80;99.90;;;;;;5115247;28;20703;-51
2022/05/23 07:49:55;;;;;;;8.55;2.80;;;21.10;99.90;;;;;;5115753;28;20173;-50
2022/05/23 07:52:21;;;;;;;7.57;3.10;;;21.10;99.90;;;;;;5115566;28;20169;-50
2022/05/23 08:00:31;;;;;;;5.82;2.88;;;21.10;99.90;;;;;;5115167;28;20232;-49
2022/05/23 08:00:35;;;;;;;5.80;2.72;;;21.10;99.90;;;;;;5115297;28;20203;-50
2022/05/23 08:03:13;;;;;;;4.22;2.53;;;21.00;99.90;;;;;;5115369;28;20172;-49
2022/05/23 08:05:39;;;;;;;3.80;2.58;;;21.00;99.90;;;;;;5114828;28;20251;-49
2022/05/23 08:08:05;;;;;;;4.40;2.55;;;21.20;99.90;;;;;;5096857;28;20644;-49
2022/05/23 08:10:30;;;;;;;5.70;2.90;;;21.30;99.90;;;;;;5115186;28;20187;-49
2022/05/23 08:12:57;;;;;;;4.32;2.53;;;21.80;99.90;;;;;;5114913;28;20213;-48
2022/05/23 08:15:25;;;;;;;4.50;2.50;;;22.30;99.90;;;;;;5115216;28;20157;-50
2022/05/23 08:17:52;;;;;;;6.85;2.58;;;22.00;99.90;;;;;;5115205;28;20169;-49
2022/05/23 08:20:18;;;;;;;3.75;2.22;;;22.50;99.90;;;;;;5096648;28;20176;-50
2022/05/23 08:22:44;;;;;;;4.75;2.08;;;22.30;99.90;;;;;;5114800;28;20237;-48
2022/05/23 08:25:11;;;;;;;5.07;2.53;;;22.20;99.90;;;;;;5114840;28;20536;-48
2022/05/23 08:27:36;;;;;;;6.32;2.25;;;22.40;99.90;;;;;;5114199;28;20204;-49
2022/05/23 08:30:04;;;;;;;4.85;2.22;;;22.30;99.90;;;;;;5114325;28;20251;-49
2022/05/23 08:32:29;;;;;;;7.30;2.63;;;22.40;99.90;;;;;;5114513;28;20200;-48
2022/05/23 08:34:55;;;;;;;8.20;2.60;;;22.40;99.90;;;;;;5114678;28;20674;-49
2022/05/23 08:37:21;;;;;;;7.97;2.55;;;22.30;99.90;;;;;;5114575;28;20685;-49
2022/05/23 08:39:49;;;;;;;6.00;2.47;;;22.40;99.90;;;;;;5114298;28;20168;-50
2022/05/23 08:42:32;;;;;;;10.20;2.35;;;22.60;99.90;;;;;;5113871;28;20195;-49
2022/05/23 08:45:12;;;;;;;3.70;2.58;;;22.40;99.90;;;;;;5114251;28;20160;-50
2022/05/23 08:47:53;;;;;;;6.90;2.55;;;22.30;99.90;;;;;;5114044;28;20208;-49
2022/05/23 08:50:43;;;;;;;6.32;2.88;;;22.30;99.90;;;;;;5114206;28;20168;-50
2022/05/23 08:53:14;;;;;;;4.60;2.65;;;22.20;99.90;;;;;;5113988;28;20260;-49
2022/05/23 08:55:46;;;;;;;4.53;2.70;;;22.10;99.90;;;;;;5114081;28;20161;-49
2022/05/23 08:58:20;;;;;;;5.30;2.22;;;22.20;99.90;;;;;;5114079;28;20229;-50
2022/05/23 09:01:18;;;;;;;5.72;2.65;;;22.20;99.90;;;;;;5113972;28;20164;-50
2022/05/23 09:03:52;;;;;;;6.10;2.47;;;21.90;99.90;;;;;;5112970;28;20263;-49
2022/05/23 09:06:34;;;;;;;11.00;3.20;;;22.00;99.90;;;;;;5114009;28;20212;-50
2022/05/23 09:09:02;;;;;;;3.70;2.80;;;22.10;99.90;;;;;;5114077;28;20169;-51
2022/05/23 09:11:41;;;;;;;7.30;2.90;;;22.10;99.90;;;;;;5113935;28;20164;-51
2022/05/23 09:14:08;;;;;;;8.32;3.47;;;22.00;99.90;;;;;;5113715;28;20192;-52
2022/05/23 09:16:41;;;;;;;10.63;2.90;;;22.10;99.90;;;;;;5095530;28;20219;-51
2022/05/23 09:19:35;;;;;;;11.85;4.25;;;22.00;99.90;;;;;;5113926;28;20192;-51
2022/05/23 09:22:20;;;;;;;17.52;3.60;;;22.10;99.90;;;;;;5113630;28;20226;-50
2022/05/23 09:24:57;;;;;;;17.15;3.75;;;22.40;99.90;;;;;;5113459;28;20161;-49
2022/05/23 09:27:36;;;;;;;14.35;6.75;;;22.70;99.90;;;;;;5095559;28;20564;-50
2022/05/23 09:30:04;;;;;;;15.88;4.38;;;22.80;99.90;;;;;;5113361;28;20169;-50
2022/05/23 09:32:43;;;;;;;16.33;3.88;;;23.50;99.90;;;;;;5113307;28;20160;-50
2022/05/23 09:35:22;;;;;;;8.65;4.70;;;23.70;99.90;;;;;;5113384;28;20164;-50
2022/05/23 09:38:05;;;;;;;7.28;3.03;;;23.60;99.90;;;;;;5094907;28;20694;-49
2022/05/23 09:40:36;;;;;;;9.45;4.47;;;23.60;99.90;;;;;;5113194;28;20221;-51
2022/05/23 09:49:15;;;;;;;5.03;2.50;;;23.70;99.90;;;;;;5113293;28;20178;-50
2022/05/23 09:51:56;;;;;;;14.25;4.28;;;23.60;99.90;;;;;;5113242;28;20168;-50
2022/05/23 09:54:37;;;;;;;11.57;3.47;;;23.80;99.90;;;;;;5113172;28;20538;-49
2022/05/23 09:57:15;;;;;;;24.33;11.73;;;23.60;99.90;;;;;;5095191;28;20172;-50
2022/05/23 09:59:41;;;;;;;6.70;3.50;;;23.70;99.90;;;;;;5112978;28;20166;-50
2022/05/23 10:02:15;;;;;;;8.57;3.00;;;23.70;99.90;;;;;;5112887;28;20251;-49
2022/05/23 10:04:45;;;;;;;8.10;4.30;;;23.50;99.90;;;;;;5112090;28;20215;-50
2022/05/23 10:07:32;;;;;;;5.80;3.20;;;23.70;99.90;;;;;;5094465;28;20241;-50
2022/05/23 10:10:02;;;;;;;11.15;4.00;;;23.50;99.90;;;;;;5112733;28;20164;-49
2022/05/23 10:12:28;;;;;;;14.63;3.63;;;23.80;99.90;;;;;;5112959;28;20624;-49
2022/05/23 10:15:15;;;;;;;13.10;3.75;;;23.70;99.90;;;;;;5113163;28;20507;-49
2022/05/23 10:17:41;;;;;;;11.93;4.57;;;23.80;99.90;;;;;;5112922;28;20581;-49
2022/05/23 10:20:25;;;;;;;14.07;4.07;;;23.60;99.90;;;;;;5113054;28;20172;-50
2022/05/23 10:22:59;;;;;;;13.02;7.25;;;24.00;99.90;;;;;;5112698;28;20172;-50
2022/05/23 10:25:39;;;;;;;9.70;3.55;;;24.40;99.90;;;;;;5112774;28;20646;-50
2022/05/23 10:28:11;;;;;;;8.38;3.58;;;24.90;99.90;;;;;;5112567;28;20176;-50
2022/05/23 10:30:38;;;;;;;5.63;2.97;;;25.00;99.90;;;;;;5112478;28;20213;-50
2022/05/23 10:33:13;;;;;;;13.05;8.13;;;25.20;99.90;;;;;;5112417;28;20534;-50
2022/05/23 10:35:38;;;;;;;10.70;6.65;;;25.20;99.90;;;;;;5112415;28;20160;-50
2022/05/23 10:43:57;;;;;;;8.98;3.78;;;25.00;99.90;;;;;;5112424;28;20255;-49
2022/05/23 10:46:26;;;;;;;4.50;3.03;;;25.20;99.90;;;;;;5112521;28;20260;-50
2022/05/23 10:49:12;;;;;;;7.80;3.80;;;25.10;99.90;;;;;;5112839;28;20174;-49
2022/05/23 10:51:42;;;;;;;27.20;16.30;;;25.40;99.90;;;;;;5112386;28;20164;-50
2022/05/23 10:54:32;;;;;;;8.35;6.15;;;25.30;99.90;;;;;;5112149;28;20564;-50
2022/05/23 10:57:25;;;;;;;8.27;3.53;;;25.30;99.90;;;;;;5112434;28;20311;-51
2022/05/23 11:00:16;;;;;;;6.13;2.40;;;25.20;99.90;;;;;;5112867;28;20168;-50
2022/05/23 11:03:11;;;;;;;6.05;3.00;;;25.20;99.90;;;;;;5112195;28;20305;-51
2022/05/23 11:06:08;;;;;;;4.78;3.15;;;25.00;99.90;;;;;;5093876;28;20570;-50
2022/05/23 11:09:02;;;;;;;8.90;6.43;;;24.80;99.90;;;;;;5112146;28;20177;-50
2022/05/23 11:11:58;;;;;;;17.73;10.90;;;24.80;99.90;;;;;;5112322;28;20296;-51
2022/05/23 11:14:55;;;;;;;11.35;4.93;;;24.90;99.90;;;;;;5112559;28;20194;-50
2022/05/23 11:17:26;;;;;;;5.82;3.05;;;25.10;99.90;;;;;;5075072;28;20180;-49
2022/05/23 11:20:07;;;;;;;5.65;4.53;;;25.20;99.90;;;;;;5116227;28;20168;-50
2022/05/23 11:22:54;;;;;;;5.85;3.40;;;25.50;99.90;;;;;;5097514;28;20168;-50
2022/05/23 11:25:36;;;;;;;7.53;4.97;;;25.40;99.90;;;;;;5115893;28;20172;-49
2022/05/23 11:34:16;;;;;;;13.85;7.22;;;25.20;99.90;;;;;;5115904;28;20171;-50
2022/05/23 11:37:09;;;;;;;7.15;3.75;;;25.50;99.90;;;;;;5097334;28;20259;-50
2022/05/23 11:39:59;;;;;;;5.95;3.20;;;25.90;99.90;;;;;;5115773;28;20259;-51
2022/05/23 11:42:37;;;;;;;6.28;3.40;;;26.20;99.90;;;;;;5097509;28;20175;-49
2022/05/23 11:47:51;;;;;;;7.18;3.15;;;26.00;99.90;;;;;;5115357;28;20211;-50
2022/05/23 11:50:26;;;;;;;10.73;3.45;;;26.20;99.90;;;;;;5115646;28;20526;-49
2022/05/23 11:53:12;;;;;;;6.18;3.28;;;26.20;99.90;;;;;;5115756;28;20163;-50
2022/05/23 11:55:50;;;;;;;4.55;2.60;;;26.00;99.90;;;;;;5097003;28;20175;-50
2022/05/23 11:58:43;;;;;;;19.98;3.75;;;25.90;99.90;;;;;;5096888;28;20251;-49
2022/05/23 12:01:12;;;;;;;5.00;3.08;;;25.70;99.90;;;;;;5112134;28;20263;-50
2022/05/23 12:03:54;;;;;;;5.80;3.20;;;25.50;99.90;;;;;;5115018;28;20590;-50
2022/05/23 12:06:36;;;;;;;7.43;3.45;;;25.70;99.90;;;;;;5096815;28;20223;-50
2022/05/23 12:09:12;;;;;;;7.20;3.03;;;26.00;99.90;;;;;;5115138;28;20156;-50
2022/05/23 12:11:43;;;;;;;10.35;3.33;;;26.30;99.90;;;;;;5114991;28;20164;-50
2022/05/23 12:14:28;;;;;;;6.18;3.33;;;26.60;99.90;;;;;;5115087;28;20523;-50
2022/05/23 12:16:56;;;;;;;8.93;3.42;;;26.60;99.90;;;;;;5115326;28;20527;-50
2022/05/23 12:19:28;;;;;;;17.10;4.47;;;26.50;99.90;;;;;;5115406;28;20168;-50
2022/05/23 12:22:13;;;;;;;4.93;3.00;;;26.30;99.90;;;;;;5115277;28;20570;-50
2022/05/23 12:24:56;;;;;;;4.63;3.15;;;26.10;99.90;;;;;;5114699;28;20224;-49
2022/05/23 12:27:35;;;;;;;12.60;2.97;;;25.70;99.90;;;;;;5095775;28;20204;-49
2022/05/23 12:30:20;;;;;;;6.93;3.20;;;25.50;99.90;;;;;;5114814;28;20236;-49
2022/05/23 12:32:57;;;;;;;3.22;2.70;;;25.40;99.90;;;;;;5114798;28;20613;-50
2022/05/23 12:35:45;;;;;;;7.35;3.20;;;25.10;99.90;;;;;;5114938;28;20594;-47
2022/05/23 12:38:43;;;;;;;11.73;3.15;;;25.10;99.90;;;;;;5114365;28;20168;-50
2022/05/23 12:41:33;;;;;;;7.30;3.45;;;25.10;99.90;;;;;;5101545;27;20531;-49
2022/05/23 12:44:42;;;;;;;10.10;3.47;;;25.20;99.90;;;;;;5117052;27;20639;-50
2022/05/23 12:47:29;;;;;;;7.35;3.20;;;25.00;99.90;;;;;;5113925;28;20273;-52
2022/05/23 12:50:15;;;;;;;12.30;3.17;;;24.90;99.90;;;;;;5114717;28;20172;-50
2022/05/23 12:53:01;;;;;;;8.85;3.20;;;24.80;99.90;;;;;;5113384;28;20627;-50
2022/05/23 12:55:36;;;;;;;6.78;3.33;;;24.50;99.90;;;;;;5114241;28;20168;-50
2022/05/23 12:58:16;;;;;;;5.22;3.33;;;24.40;99.90;;;;;;5113947;28;20183;-50
2022/05/23 13:00:43;;;;;;;9.23;3.55;;;24.30;99.90;;;;;;5113833;28;20262;-50
2022/05/23 13:03:27;;;;;;;13.48;2.95;;;24.20;99.90;;;;;;5113762;28;20164;-50
2022/05/23 13:06:01;;;;;;;7.45;3.08;;;23.90;99.90;;;;;;5113619;28;20204;-50
2022/05/23 13:08:55;;;;;;;8.43;3.08;;;23.70;99.90;;;;;;5113590;28;20177;-50
2022/05/23 13:11:33;;;;;;;9.50;3.03;;;23.80;99.90;;;;;;5095306;28;20172;-51
2022/05/23 13:14:00;;;;;;;4.43;3.15;;;23.70;99.90;;;;;;5096834;28;20164;-50
2022/05/23 13:16:27;;;;;;;8.07;3.33;;;23.60;99.90;;;;;;5113820;28;20570;-47
2022/05/23 13:27:13;;;;;;;13.02;4.50;;;22.70;99.90;;;;;;5113395;28;20305;-50
2022/05/23 13:29:40;;;;;;;13.38;4.75;;;22.50;99.90;;;;;;5113178;28;20504;-49
2022/05/23 13:32:12;;;;;;;8.57;4.53;;;22.50;99.90;;;;;;5112937;28;20165;-50
2022/05/23 13:34:42;;;;;;;10.45;5.05;;;22.20;99.90;;;;;;5113071;28;20251;-46
2022/05/23 13:37:08;;;;;;;9.57;4.20;;;22.20;99.90;;;;;;5113189;28;20226;-49
2022/05/23 13:39:46;;;;;;;10.38;4.50;;;22.20;99.90;;;;;;5113310;28;20173;-49
2022/05/23 13:42:19;;;;;;;9.60;4.55;;;22.00;99.90;;;;;;5113497;28;20180;-50
2022/05/23 13:44:45;;;;;;;8.98;4.15;;;21.70;99.90;;;;;;5095486;28;20173;-50
2022/05/23 13:47:21;;;;;;;10.02;4.07;;;21.70;99.90;;;;;;5095353;28;20200;-51
2022/05/23 13:49:56;;;;;;;8.48;4.40;;;21.70;99.90;;;;;;5114039;28;20161;-51
2022/05/23 13:52:31;;;;;;;12.63;5.28;;;21.60;99.90;;;;;;5095388;28;20167;-51
2022/05/23 13:55:10;;;;;;;12.07;5.10;;;21.60;99.90;;;;;;5113946;28;20679;-50
2022/05/23 13:57:42;;;;;;;15.20;5.07;;;21.70;99.90;;;;;;5095427;28;20175;-50
2022/05/23 14:00:14;;;;;;;14.15;5.30;;;21.90;99.90;;;;;;5113402;28;20178;-51
2022/05/23 14:02:50;;;;;;;10.63;4.70;;;22.20;99.90;;;;;;5113134;28;20172;-50
2022/05/23 14:05:17;;;;;;;8.50;4.32;;;22.50;99.90;;;;;;5112779;28;20219;-50
2022/05/23 14:07:43;;;;;;;9.65;4.18;;;22.50;99.90;;;;;;5111505;28;20204;-51
2022/05/23 14:10:22;;;;;;;7.80;4.47;;;22.80;99.90;;;;;;5112923;28;20286;-50